Time;durP1;ratioP1;P1;durP2;ratioP2;P2;SDS_P1;SDS_P2;PMS_P1;PMS_P2;Temp;Humidity;BMP_temperature;BMP_pressure;BME280_temperature;BME280_humidity;BME280_pressure;Samples;Min_cycle;Max_cycle;Signal;HPM_P1;HPM_P2
2022/11/26 00:03:01;;;;;;;11.65;4.60;;;;;;;8.67;100.00;100760.66;12210175;19;20010;-82
2022/11/26 00:07:03;;;;;;;14.93;4.35;;;;;;;8.72;100.00;100768.25;12210418;19;20007;-82
2022/11/26 00:11:12;;;;;;;17.98;4.63;;;;;;;8.78;100.00;100767.41;12190014;19;20807;-81
2022/11/26 00:15:14;;;;;;;17.70;4.18;;;;;;;8.79;100.00;100769.09;12209545;19;20036;-81
2022/11/26 00:19:16;;;;;;;15.45;4.10;;;;;;;8.79;100.00;100780.06;12209037;19;20024;-82
2022/11/26 00:23:23;;;;;;;10.50;4.10;;;;;;;8.77;100.00;100787.69;12185700;19;20031;-83
2022/11/26 00:27:26;;;;;;;12.50;4.45;;;;;;;8.80;100.00;100790.00;12203182;19;20014;-83
2022/11/26 00:31:28;;;;;;;8.68;3.55;;;;;;;8.82;100.00;100796.13;12208461;19;20010;-81
2022/11/26 00:35:30;;;;;;;10.35;3.70;;;;;;;8.83;100.00;100802.47;12187498;19;20014;-82
2022/11/26 00:39:31;;;;;;;13.70;3.85;;;;;;;8.86;100.00;100802.03;12213227;19;20377;-82
2022/11/26 00:43:33;;;;;;;18.38;3.85;;;;;;;8.85;100.00;100801.19;12208687;19;20010;-83
2022/11/26 00:47:35;;;;;;;12.30;4.10;;;;;;;8.78;100.00;100810.53;12183293;19;20035;-82
2022/11/26 00:51:37;;;;;;;17.55;3.33;;;;;;;8.65;100.00;100811.38;12205945;19;20031;-81
2022/11/26 00:55:42;;;;;;;12.60;3.92;;;;;;;8.51;100.00;100828.94;12209384;19;20019;-82
2022/11/26 00:59:44;;;;;;;13.20;3.60;;;;;;;8.35;100.00;100830.16;12186492;19;21172;-82
2022/11/26 01:03:45;;;;;;;10.38;3.72;;;;;;;8.20;100.00;100830.34;12205410;19;20010;-81
2022/11/26 01:07:47;;;;;;;12.80;3.42;;;;;;;8.08;100.00;100837.53;12174275;19;20445;-82
2022/11/26 01:11:50;;;;;;;12.37;3.70;;;;;;;7.96;100.00;100845.50;12203974;19;20036;-82
2022/11/26 01:15:56;;;;;;;10.48;4.40;;;;;;;7.86;100.00;100839.59;12205530;19;20014;-82
2022/11/26 01:19:57;;;;;;;;;;;;;;;7.78;100.00;100848.00;12183754;19;20014;-83
2022/11/26 01:23:59;;;;;;;10.70;3.88;;;;;;;7.71;100.00;100859.81;12198888;19;19910;-81
2022/11/26 01:28:01;;;;;;;13.57;3.72;;;;;;;7.67;100.00;100858.50;12205669;19;20032;-82
2022/11/26 01:32:03;;;;;;;14.23;3.47;;;;;;;7.73;100.00;100870.56;12181878;19;20022;-81
2022/11/26 01:36:20;;;;;;;17.15;4.78;;;;;;;7.81;100.00;100873.13;12200171;19;20022;-81
2022/11/26 01:40:24;;;;;;;16.02;4.32;;;;;;;7.92;100.00;100877.19;12212671;19;20027;-82
2022/11/26 01:44:29;;;;;;;14.38;4.65;;;;;;;8.03;100.00;100872.97;12194234;19;20007;-82
2022/11/26 01:48:33;;;;;;;14.35;4.50;;;;;;;8.14;100.00;100880.59;12215434;19;20007;-82
2022/11/26 01:52:34;;;;;;;13.25;4.00;;;;;;;8.17;100.00;100881.03;12215489;19;20015;-82
2022/11/26 01:56:39;;;;;;;14.07;4.57;;;;;;;8.13;100.00;100884.41;12194153;19;20070;-81
2022/11/26 02:00:41;;;;;;;14.95;4.15;;;;;;;8.02;100.00;100893.25;12215914;19;20078;-82
2022/11/26 02:04:58;;;;;;;13.07;4.50;;;;;;;7.92;100.00;100910.13;12191685;19;20014;-82
2022/11/26 02:09:02;;;;;;;20.65;5.18;;;;;;;7.85;100.00;100907.34;12211939;19;20006;-82
2022/11/26 02:13:04;;;;;;;16.05;5.43;;;;;;;7.86;100.00;100910.94;12212758;19;20015;-81
2022/11/26 02:17:13;;;;;;;14.82;4.70;;;;;;;7.82;100.00;100926.94;12190513;19;20460;-81
2022/11/26 02:21:25;;;;;;;14.48;4.68;;;;;;;7.79;100.00;100932.84;12213330;19;20047;-81
2022/11/26 02:25:47;;;;;;;13.68;5.18;;;;;;;7.78;100.00;100946.78;12210143;19;20010;-82
2022/11/26 02:30:01;;;;;;;17.52;5.53;;;;;;;7.75;100.00;100950.78;12192088;19;20082;-82
2022/11/26 02:34:14;;;;;;;14.27;5.53;;;;;;;7.73;100.00;100950.13;12213302;19;20003;-81
2022/11/26 02:38:23;;;;;;;13.30;4.88;;;;;;;7.71;100.00;100957.72;12190748;19;20007;-82
2022/11/26 02:42:31;;;;;;;11.10;4.72;;;;;;;7.65;100.00;100955.81;12211582;19;20010;-81
2022/11/26 02:46:32;;;;;;;19.88;5.55;;;;;;;7.58;100.00;100955.75;12213275;19;20003;-81
2022/11/26 02:50:43;;;;;;;13.00;5.35;;;;;;;7.53;100.00;100956.34;12189160;19;20626;-80
2022/11/26 02:54:48;;;;;;;11.10;4.75;;;;;;;7.53;100.00;100953.63;12212232;19;20037;-80
2022/11/26 02:58:52;;;;;;;15.13;5.03;;;;;;;7.50;100.00;100964.16;12190344;19;20338;-81
2022/11/26 03:03:07;;;;;;;13.32;6.07;;;;;;;7.46;100.00;100973.81;12207171;19;20101;-81
2022/11/26 03:07:11;;;;;;;14.25;4.75;;;;;;;7.39;100.00;100975.69;12212120;19;20469;-82
2022/11/26 03:11:13;;;;;;;14.70;5.32;;;;;;;7.33;100.00;100979.22;12247757;19;20018;-80
2022/11/26 03:15:15;;;;;;;15.88;5.55;;;;;;;7.25;100.00;100981.03;12266658;19;20018;-80
2022/11/26 03:19:16;;;;;;;17.20;5.68;;;;;;;7.23;100.00;100976.84;12221796;19;20014;-81
2022/11/26 03:23:18;;;;;;;17.75;5.20;;;;;;;7.29;100.00;100976.03;12196533;19;20014;-82
2022/11/26 03:27:20;;;;;;;11.55;4.82;;;;;;;7.36;100.00;100979.66;12219312;19;20014;-82
2022/11/26 03:31:21;;;;;;;14.07;5.25;;;;;;;7.45;100.00;100983.94;12218165;19;20780;-82
2022/11/26 03:35:23;;;;;;;19.10;5.32;;;;;;;7.53;100.00;100980.22;12192362;19;21068;-83
2022/11/26 03:39:25;;;;;;;14.20;4.68;;;;;;;7.60;100.00;100989.31;12239495;19;20007;-80
2022/11/26 03:43:27;;;;;;;13.20;4.68;;;;;;;7.68;100.00;100974.59;12262286;19;20014;-81
2022/11/26 03:47:28;;;;;;;12.67;4.37;;;;;;;7.71;100.00;100979.69;12199280;19;20552;-82
2022/11/26 03:51:33;;;;;;;20.52;5.65;;;;;;;7.70;100.00;100984.31;12214329;19;20014;-82
2022/11/26 03:55:35;;;;;;;13.73;4.30;;;;;;;7.65;100.00;100981.34;12216207;19;20014;-82
2022/11/26 03:59:36;;;;;;;12.05;4.30;;;;;;;7.56;100.00;100974.31;12191238;19;20500;-82
2022/11/26 04:03:38;;;;;;;10.88;4.20;;;;;;;7.44;100.00;100982.25;12210859;19;20018;-82
2022/11/26 04:07:40;;;;;;;11.83;5.17;;;;;;;7.32;100.00;100972.91;12210613;19;20006;-82
2022/11/26 04:11:42;;;;;;;19.77;5.15;;;;;;;7.21;100.00;100978.91;12190482;19;20011;-83
2022/11/26 04:15:43;;;;;;;16.08;4.22;;;;;;;7.06;100.00;100968.06;12213676;19;20014;-81
2022/11/26 04:19:45;;;;;;;9.80;3.45;;;;;;;6.95;100.00;100974.91;12190464;19;20022;-81
2022/11/26 04:23:47;;;;;;;13.68;4.45;;;;;;;6.85;100.00;100974.41;12209263;19;20419;-81
2022/11/26 04:27:48;;;;;;;13.73;3.88;;;;;;;6.74;100.00;100973.03;12209333;19;20006;-81
2022/11/26 04:31:50;;;;;;;17.58;4.10;;;;;;;6.65;100.00;100965.16;12187350;19;20007;-82
2022/11/26 04:35:53;;;;;;;13.07;4.45;;;;;;;6.56;100.00;100967.16;12208589;19;20035;-83
2022/11/26 04:39:55;;;;;;;14.02;4.65;;;;;;;6.48;100.00;100961.81;12207065;19;20010;-82
2022/11/26 04:43:56;;;;;;;10.45;4.50;;;;;;;6.41;100.00;100969.13;12187783;19;20094;-81
2022/11/26 04:47:58;;;;;;;21.42;4.63;;;;;;;6.33;100.00;100975.56;12205728;19;20036;-81
2022/11/26 04:51:59;;;;;;;14.57;5.45;;;;;;;6.29;100.00;100980.56;12207270;19;20685;-81
2022/11/26 04:56:01;;;;;;;19.20;5.53;;;;;;;6.24;100.00;100999.47;12184776;19;20051;-82
2022/11/26 05:00:05;;;;;;;14.85;4.97;;;;;;;6.21;100.00;101001.75;12207041;19;20082;-82
2022/11/26 05:04:06;;;;;;;17.02;4.95;;;;;;;6.16;100.00;101016.03;12205860;19;20006;-82
2022/11/26 05:08:08;;;;;;;14.18;4.60;;;;;;;6.12;100.00;101021.00;12184266;19;20010;-81
2022/11/26 05:12:11;;;;;;;12.73;4.47;;;;;;;6.07;100.00;101034.44;12205190;19;20007;-82
2022/11/26 05:16:13;;;;;;;15.45;5.13;;;;;;;6.01;100.00;101029.72;12217309;19;20014;-82
2022/11/26 05:20:15;;;;;;;13.30;5.70;;;;;;;5.94;100.00;101035.06;12195645;19;20014;-82
2022/11/26 05:24:17;;;;;;;18.55;5.32;;;;;;;5.90;100.00;101036.47;12217645;19;20018;-83
2022/11/26 05:28:18;;;;;;;19.20;6.43;;;;;;;5.86;100.00;101032.44;12217348;19;20031;-82
2022/11/26 05:32:20;;;;;;;13.63;5.70;;;;;;;5.86;100.00;101051.59;12196174;19;20472;-82
2022/11/26 05:36:21;;;;;;;17.45;6.10;;;;;;;5.82;100.00;101063.91;12217266;19;20387;-81
2022/11/26 05:40:23;;;;;;;24.55;6.32;;;;;;;5.78;100.00;101062.59;12215128;19;20051;-82
2022/11/26 05:44:25;;;;;;;24.52;6.68;;;;;;;5.75;100.00;101064.88;12195394;19;20493;-82
2022/11/26 05:48:26;;;;;;;19.85;6.60;;;;;;;5.72;100.00;101068.81;12214996;19;20350;-81
2022/11/26 05:52:28;;;;;;;21.55;6.60;;;;;;;5.68;100.00;101076.56;12218406;19;20011;-81
2022/11/26 06:01:21;;;;;;;21.60;7.80;;;;;;;5.60;100.00;101073.06;12214365;19;20007;-81
2022/11/26 06:11:43;;;;;;;19.73;7.35;;;;;;;5.54;100.00;101090.22;12215118;19;20016;-82
2022/11/26 06:15:49;;;;;;;21.65;7.43;;;;;;;5.52;100.00;101105.94;12214793;19;20026;-83
2022/11/26 06:19:51;;;;;;;20.50;8.13;;;;;;;5.49;100.00;101104.44;12192315;19;20013;-82
2022/11/26 06:23:53;;;;;;;24.30;7.50;;;;;;;5.45;100.00;101101.22;12212506;19;20002;-84
2022/11/26 06:28:00;;;;;;;24.27;8.20;;;;;;;5.43;100.00;101100.53;12213233;19;20014;-82
2022/11/26 06:32:01;;;;;;;21.33;8.20;;;;;;;5.42;100.00;101108.94;12192207;19;20353;-82
2022/11/26 06:36:04;;;;;;;21.70;8.20;;;;;;;5.43;100.00;101124.31;12213676;19;20011;-83
2022/11/26 06:40:08;;;;;;;23.42;8.98;;;;;;;5.44;100.00;101129.59;12213579;19;20070;-82
2022/11/26 06:44:09;;;;;;;30.75;10.10;;;;;;;5.49;100.00;101131.75;12192034;19;20082;-83
2022/11/26 06:48:11;;;;;;;24.65;8.77;;;;;;;5.54;100.00;101139.44;12210260;19;20018;-81
2022/11/26 06:52:13;;;;;;;27.98;9.23;;;;;;;5.58;100.00;101147.06;12213141;19;20039;-82
2022/11/26 06:56:16;;;;;;;25.20;9.68;;;;;;;5.65;100.00;101163.56;12189981;19;20113;-82
2022/11/26 07:00:20;;;;;;;24.83;9.15;;;;;;;5.71;100.00;101165.56;12212813;19;20006;-82
2022/11/26 07:04:22;;;;;;;25.00;9.35;;;;;;;5.78;100.00;101168.44;12212123;19;20023;-82
2022/11/26 07:08:24;;;;;;;22.27;9.30;;;;;;;5.80;100.00;101161.75;12190381;19;20018;-81
2022/11/26 07:12:25;;;;;;;23.40;9.15;;;;;;;5.86;100.00;101171.06;12212764;19;20385;-82
2022/11/26 07:16:27;;;;;;;24.63;10.23;;;;;;;5.90;100.00;101178.72;12211380;19;20042;-82
2022/11/26 07:20:29;;;;;;;13.70;6.73;;;;;;;5.95;100.00;101170.00;12189773;19;20006;-82
2022/11/26 07:24:31;;;;;;;27.60;10.68;;;;;;;6.00;100.00;101177.66;12211532;19;20087;-81
2022/11/26 07:28:33;;;;;;;18.00;9.05;;;;;;;6.05;100.00;101175.22;12211017;19;20081;-81
2022/11/26 07:32:35;;;;;;;28.08;9.68;;;;;;;6.10;100.00;101186.47;12190610;19;20044;-81
2022/11/26 07:36:41;;;;;;;25.50;9.85;;;;;;;6.18;100.00;101193.72;12209068;19;20006;-81
2022/11/26 07:40:43;;;;;;;26.58;10.30;;;;;;;6.22;100.00;101198.63;12200367;19;20521;-84
2022/11/26 07:44:45;;;;;;;21.95;9.93;;;;;;;6.26;100.00;101204.59;12210645;19;20015;-82
2022/11/26 07:48:46;;;;;;;23.55;10.07;;;;;;;6.27;100.00;101207.13;12209147;19;20074;-81
2022/11/26 07:52:51;;;;;;;21.48;8.93;;;;;;;6.27;100.00;101204.38;12187173;19;20020;-81
2022/11/26 07:56:52;;;;;;;22.40;10.15;;;;;;;6.28;100.00;101208.84;12209833;19;20039;-81
2022/11/26 08:00:54;;;;;;;20.13;9.00;;;;;;;6.27;100.00;101207.13;12209000;19;20014;-81
2022/11/26 08:04:55;;;;;;;20.38;8.38;;;;;;;6.27;100.00;101215.31;12189170;19;20013;-83
2022/11/26 08:08:58;;;;;;;19.02;9.23;;;;;;;6.28;100.00;101213.47;12209403;19;20027;-82
2022/11/26 08:13:00;;;;;;;;;;;;;;;6.26;100.00;101213.63;12210497;19;20014;-83
2022/11/26 08:17:02;;;;;;;18.13;7.55;;;;;;;6.27;100.00;101207.13;12190674;19;19915;-82
2022/11/26 08:21:04;;;;;;;24.65;8.65;;;;;;;6.30;100.00;101206.75;12210469;19;20035;-82
2022/11/26 08:25:07;;;;;;;17.05;8.27;;;;;;;6.33;100.00;101214.56;12210181;19;20018;-82
2022/11/26 08:29:09;;;;;;;19.95;8.70;;;;;;;6.41;100.00;101218.28;12188657;19;20358;-83
2022/11/26 08:33:10;;;;;;;18.92;8.35;;;;;;;6.48;100.00;101217.31;12227309;19;20039;-81
2022/11/26 08:37:12;;;;;;;17.85;8.18;;;;;;;6.55;100.00;101211.97;12257474;19;20041;-80
2022/11/26 08:41:14;;;;;;;25.42;8.90;;;;;;;6.62;100.00;101219.22;12237532;19;20006;-81
2022/11/26 08:45:15;;;;;;;20.63;10.07;;;;;;;6.72;100.00;101226.28;12256745;19;20014;-82
2022/11/26 08:49:17;;;;;;;31.17;10.30;;;;;;;6.81;100.00;101225.13;12224922;19;20514;-83
2022/11/26 08:53:19;;;;;;;18.98;8.40;;;;;;;6.92;100.00;101221.06;12206890;19;20488;-82
2022/11/26 08:57:20;;;;;;;23.02;8.75;;;;;;;7.00;100.00;101215.50;12218119;19;20018;-82
2022/11/26 09:01:26;;;;;;;27.98;10.52;;;;;;;7.13;100.00;101223.03;12219067;19;20007;-82
2022/11/26 09:05:28;;;;;;;25.42;10.85;;;;;;;7.23;100.00;101232.66;12183582;19;20019;-82
2022/11/26 09:09:29;;;;;;;29.13;10.50;;;;;;;7.34;100.00;101236.75;12217756;19;20146;-82
2022/11/26 09:13:31;;;;;;;29.88;10.55;;;;;;;7.44;100.00;101245.53;12225768;19;20010;-81
2022/11/26 09:17:33;;;;;;;24.58;10.38;;;;;;;7.53;100.00;101254.50;12201777;19;20011;-82
2022/11/26 09:21:35;;;;;;;24.50;10.80;;;;;;;7.62;100.00;101268.94;12223388;19;20009;-82
2022/11/26 09:25:38;;;;;;;22.10;9.63;;;;;;;7.76;100.00;101268.88;12223893;19;20007;-83
2022/11/26 09:29:39;;;;;;;;;;;;;;;7.94;100.00;101271.16;12207919;19;20286;-82
2022/11/26 09:33:41;;;;;;;21.23;9.63;;;;;;;8.09;100.00;101270.22;12266059;19;19944;-80
2022/11/26 09:37:43;;;;;;;30.37;10.90;;;;;;;8.20;100.00;101273.28;12265185;19;20006;-80
2022/11/26 09:42:02;;;;;;;25.40;10.98;;;;;;;8.32;100.00;101272.72;12244396;19;20041;-81
2022/11/26 09:46:04;;;;;;;17.93;8.53;;;;;;;8.37;100.00;101281.22;12232849;19;20006;-82
2022/11/26 09:50:12;;;;;;;29.57;13.17;;;;;;;8.43;100.00;101280.47;12208241;19;20023;-83
2022/11/26 09:54:19;;;;;;;28.13;13.70;;;;;;;8.41;100.00;101288.88;12219953;19;20022;-82
2022/11/26 09:59:00;;;;;;;29.35;13.05;;;;;;;8.34;100.00;101287.13;12224733;19;20372;-81
2022/11/26 10:03:12;;;;;;;28.30;11.60;;;;;;;8.42;100.00;101295.25;12198959;19;20047;-82
2022/11/26 10:07:29;;;;;;;22.90;10.35;;;;;;;8.47;100.00;101284.50;12222797;19;20119;-82
2022/11/26 10:11:38;;;;;;;19.38;9.93;;;;;;;8.54;100.00;101279.06;12195552;19;20023;-83
2022/11/26 10:15:53;;;;;;;20.13;9.65;;;;;;;8.42;100.00;101273.28;12223329;19;20013;-82
2022/11/26 10:19:55;;;;;;;23.33;10.70;;;;;;;8.40;100.00;101269.88;12200866;19;20003;-84
2022/11/26 10:24:04;;;;;;;21.25;11.13;;;;;;;8.31;100.00;101271.88;12220519;19;20018;-82
2022/11/26 10:28:20;;;;;;;24.77;10.60;;;;;;;8.25;100.00;101272.69;12222488;19;20015;-82
2022/11/26 10:32:28;;;;;;;24.33;11.05;;;;;;;8.27;100.00;101269.72;12198315;19;20022;-82
2022/11/26 10:36:36;;;;;;;19.33;9.95;;;;;;;8.30;100.00;101266.59;12219596;19;20018;-82
2022/11/26 10:40:37;;;;;;;18.90;9.07;;;;;;;8.34;100.00;101265.16;12223338;19;20007;-82
2022/11/26 10:44:40;;;;;;;19.20;9.45;;;;;;;8.51;100.00;101268.50;12197924;19;20006;-82
2022/11/26 10:48:42;;;;;;;16.02;8.50;;;;;;;8.59;100.00;101271.91;12219827;19;20484;-80
2022/11/26 10:52:45;;;;;;;18.95;8.35;;;;;;;8.69;100.00;101278.97;12211325;19;20030;-82
2022/11/26 10:56:51;;;;;;;18.02;7.25;;;;;;;8.70;100.00;101276.00;12219717;19;20010;-81
2022/11/26 11:00:57;;;;;;;14.93;7.10;;;;;;;8.79;100.00;101271.19;12219035;19;20010;-83
2022/11/26 11:05:03;;;;;;;15.48;6.65;;;;;;;8.82;100.00;101268.03;12197692;19;20011;-82
2022/11/26 11:09:33;;;;;;;12.18;6.15;;;;;;;8.81;100.00;101258.94;12215923;19;20011;-82
2022/11/26 11:13:54;;;;;;;14.45;8.30;;;;;;;8.98;100.00;101272.34;12216231;19;20031;-83
2022/11/26 11:18:02;;;;;;;16.58;8.02;;;;;;;9.11;100.00;101265.00;12193474;19;20010;-81
2022/11/26 11:22:04;;;;;;;11.45;6.47;;;;;;;9.20;100.00;101262.94;12218989;19;20029;-82
2022/11/26 11:26:19;;;;;;;12.20;6.57;;;;;;;9.22;100.00;101268.22;12197703;19;20018;-83
2022/11/26 11:30:28;;;;;;;15.20;6.57;;;;;;;9.26;100.00;101275.03;12218272;19;20026;-82
2022/11/26 11:34:37;;;;;;;14.88;6.60;;;;;;;9.49;100.00;101270.03;12217392;19;20472;-83
2022/11/26 11:38:53;;;;;;;12.57;6.30;;;;;;;9.42;100.00;101263.63;12196721;19;20063;-82
2022/11/26 11:43:04;;;;;;;10.63;6.55;;;;;;;9.29;100.00;101264.44;12218691;19;20027;-82
2022/11/26 11:47:20;;;;;;;16.75;6.82;;;;;;;9.21;100.00;101270.13;12195908;19;20104;-82
2022/11/26 11:51:24;;;;;;;13.18;5.95;;;;;;;9.11;100.00;101250.41;12221130;19;20026;-82
2022/11/26 11:56:03;;;;;;;14.07;6.53;;;;;;;9.06;100.00;101259.28;12223132;19;20007;-82
2022/11/26 12:00:15;;;;;;;17.20;7.03;;;;;;;8.99;100.00;101258.41;12206494;19;20499;-82
2022/11/26 12:04:45;;;;;;;16.60;7.07;;;;;;;8.92;100.00;101265.75;12213440;19;20010;-82
2022/11/26 12:09:13;;;;;;;16.23;6.43;;;;;;;8.74;100.00;101255.28;12192032;19;20011;-81
2022/11/26 12:13:16;;;;;;;18.98;7.50;;;;;;;8.63;100.00;101264.13;12209542;19;20047;-82
2022/11/26 12:17:39;;;;;;;15.30;7.07;;;;;;;8.64;100.00;101250.16;12194145;19;20591;-82
2022/11/26 12:22:03;;;;;;;16.88;7.97;;;;;;;8.66;100.00;101237.09;12216758;19;20010;-82
2022/11/26 12:26:20;;;;;;;19.73;7.35;;;;;;;8.59;100.00;101241.69;12196477;19;20004;-82
2022/11/26 12:30:30;;;;;;;16.02;7.32;;;;;;;8.74;100.00;101249.78;12217224;19;20034;-82
2022/11/26 12:34:53;;;;;;;19.08;7.95;;;;;;;8.79;100.00;101257.44;12214890;19;20022;-83
2022/11/26 12:38:58;;;;;;;;;;;;;;;8.71;100.00;101255.69;12197611;19;20007;-82
2022/11/26 12:43:12;;;;;;;24.17;8.63;;;;;;;8.72;100.00;101256.56;12225397;19;19915;-82
2022/11/26 12:47:23;;;;;;;22.80;9.93;;;;;;;8.70;100.00;101262.25;12189099;19;20073;-82
2022/11/26 12:51:32;;;;;;;17.83;8.65;;;;;;;8.62;100.00;101263.25;12177381;19;20790;-82
2022/11/26 12:55:53;;;;;;;21.92;9.35;;;;;;;8.63;100.00;101269.63;12219833;19;20015;-82
2022/11/26 13:00:11;;;;;;;18.63;9.30;;;;;;;8.61;100.00;101266.22;12194288;19;20016;-83
2022/11/26 13:04:14;;;;;;;20.65;9.52;;;;;;;8.63;100.00;101264.97;12213104;19;20334;-82
2022/11/26 13:08:42;;;;;;;19.43;9.03;;;;;;;8.72;100.00;101262.06;12193063;19;20010;-82
2022/11/26 13:13:08;;;;;;;20.30;9.43;;;;;;;8.61;100.00;101260.72;12209126;19;20373;-82
2022/11/26 13:17:16;;;;;;;22.23;9.88;;;;;;;8.52;100.00;101264.69;12193224;19;20010;-83
2022/11/26 13:21:47;;;;;;;17.85;9.13;;;;;;;8.50;100.00;101264.88;12213133;19;20013;-82
2022/11/26 13:25:57;;;;;;;23.02;9.27;;;;;;;8.53;100.00;101266.38;12187358;19;20023;-83
2022/11/26 13:30:20;;;;;;;16.63;9.15;;;;;;;8.53;100.00;101264.47;12211762;19;20010;-82
2022/11/26 13:34:39;;;;;;;22.97;10.27;;;;;;;8.58;100.00;101267.47;12229302;19;20064;-82
2022/11/26 13:38:55;;;;;;;21.13;9.70;;;;;;;8.58;100.00;101272.97;12251889;19;20006;-81
2022/11/26 13:43:15;;;;;;;19.38;9.75;;;;;;;8.58;100.00;101259.22;12234874;19;20006;-82
2022/11/26 13:47:24;;;;;;;19.60;10.50;;;;;;;8.62;100.00;101255.00;12203993;19;20014;-83
2022/11/26 13:51:36;;;;;;;24.02;11.55;;;;;;;8.67;100.00;101255.25;12222442;19;20018;-82
2022/11/26 14:09:41;;;;;;;17.55;9.80;;;;;;;8.72;100.00;101246.44;12247367;19;20361;-83
2022/11/26 14:14:26;;;;;;;21.77;10.63;;;;;;;8.69;100.00;101246.00;12217654;19;20027;-83
2022/11/26 14:18:50;;;;;;;19.75;10.07;;;;;;;8.79;100.00;101241.81;12115531;19;2004292;-83
2022/11/26 14:23:17;;;;;;;21.23;9.73;;;;;;;8.87;100.00;101254.53;12195775;19;20027;-83
2022/11/26 14:27:28;;;;;;;16.25;9.18;;;;;;;8.87;100.00;101258.13;12220646;19;20014;-82
2022/11/26 14:31:51;;;;;;;17.75;9.18;;;;;;;8.94;100.00;101262.81;12220200;19;20011;-82
2022/11/26 14:35:58;;;;;;;18.27;9.07;;;;;;;8.96;100.00;101258.81;12198789;19;20010;-82
2022/11/26 14:40:18;;;;;;;22.30;10.82;;;;;;;8.91;100.00;101253.06;12233696;19;20085;-82
2022/11/26 14:44:24;;;;;;;19.92;9.68;;;;;;;8.96;100.00;101247.81;12233483;19;20081;-82
2022/11/26 14:48:31;;;;;;;20.83;9.15;;;;;;;8.97;100.00;101252.25;12225066;19;20019;-83
2022/11/26 14:52:39;;;;;;;22.23;9.88;;;;;;;8.94;100.00;101247.16;12221013;19;20015;-82
2022/11/26 14:56:56;;;;;;;19.45;8.88;;;;;;;8.96;100.00;101236.81;12159163;19;20384;-83
2022/11/26 15:01:24;;;;;;;17.15;8.27;;;;;;;9.01;100.00;101234.31;12222072;19;20524;-83
2022/11/26 15:05:35;;;;;;;18.27;9.77;;;;;;;9.06;100.00;101234.53;12197024;19;20026;-83
2022/11/26 15:10:25;;;;;;;21.25;9.85;;;;;;;9.07;100.00;101235.38;12223555;19;20044;-82
2022/11/26 15:14:49;;;;;;;18.83;8.80;;;;;;;9.08;100.00;101226.09;12194632;19;20010;-82
2022/11/26 15:19:20;;;;;;;21.50;9.48;;;;;;;9.05;100.00;101213.59;12219119;19;20003;-83
2022/11/26 15:23:35;;;;;;;22.38;10.15;;;;;;;8.98;100.00;101222.84;12196488;19;20010;-83
2022/11/26 15:27:39;;;;;;;22.65;9.93;;;;;;;8.97;100.00;101216.50;12219357;19;20034;-82
2022/11/26 15:31:43;;;;;;;17.33;9.60;;;;;;;8.95;100.00;101215.84;12218715;19;20735;-82
2022/11/26 15:35:55;;;;;;;20.58;9.93;;;;;;;8.94;100.00;101216.06;12197319;19;20014;-82
2022/11/26 15:40:09;;;;;;;22.63;9.85;;;;;;;8.91;100.00;101217.34;12218096;19;20011;-83
2022/11/26 15:44:28;;;;;;;20.17;10.05;;;;;;;8.84;100.00;101216.47;12195438;19;20043;-82
2022/11/26 15:48:43;;;;;;;21.88;9.23;;;;;;;8.71;100.00;101214.47;12218956;19;20014;-82
2022/11/26 15:53:37;;;;;;;18.50;8.65;;;;;;;8.71;100.00;101222.72;12219838;19;20334;-82
2022/11/26 15:57:59;;;;;;;16.40;8.55;;;;;;;8.75;100.00;101223.19;12139107;19;2004389;-82
2022/11/26 16:02:24;;;;;;;17.70;9.32;;;;;;;8.77;100.00;101218.31;12247480;19;20013;-81
2022/11/26 16:06:37;;;;;;;20.27;9.90;;;;;;;8.77;100.00;101227.41;12243858;19;20550;-83
2022/11/26 16:11:19;;;;;;;20.25;9.38;;;;;;;8.76;100.00;101236.72;12221149;19;20006;-84
2022/11/26 16:15:52;;;;;;;23.85;10.13;;;;;;;8.73;100.00;101225.28;12113506;19;2004406;-83
2022/11/26 16:21:27;;;;;;;;;;;;;;;;;;;;;
2022/11/26 16:26:18;;;;;;;22.60;9.85;;;;;;;8.70;100.00;101229.28;12218367;19;20074;-84
2022/11/26 16:30:44;;;;;;;20.10;9.60;;;;;;;8.67;100.00;101227.78;12119371;19;2004688;-81
2022/11/26 16:34:54;;;;;;;22.95;11.13;;;;;;;8.57;100.00;101237.47;12202624;19;20034;-83
2022/11/26 16:38:58;;;;;;;19.23;9.70;;;;;;;8.54;100.00;101230.47;12214709;19;20021;-82
2022/11/26 16:43:00;;;;;;;22.92;9.88;;;;;;;8.43;100.00;101240.09;12215276;19;20022;-82
2022/11/26 16:47:02;;;;;;;22.58;10.90;;;;;;;8.32;100.00;101248.00;12196276;19;20014;-82
2022/11/26 16:51:21;;;;;;;16.52;9.10;;;;;;;8.34;100.00;101244.03;12215151;19;20014;-82
2022/11/26 16:55:48;;;;;;;23.90;9.10;;;;;;;8.40;100.00;101248.75;12216771;19;20371;-82
2022/11/26 17:00:25;;;;;;;20.38;8.63;;;;;;;8.45;100.00;101245.41;12194507;19;20083;-82
2022/11/26 17:04:58;;;;;;;23.60;10.10;;;;;;;8.48;100.00;101245.00;12214224;19;20017;-82
2022/11/26 17:09:28;;;;;;;19.73;9.82;;;;;;;8.52;100.00;101240.78;12194173;19;20010;-82
2022/11/26 17:13:38;;;;;;;20.60;9.00;;;;;;;8.56;100.00;101241.22;12226621;19;20030;-82
2022/11/26 17:18:13;;;;;;;18.52;9.50;;;;;;;8.55;100.00;101251.38;12194943;19;20711;-82
2022/11/26 17:22:44;;;;;;;18.20;9.20;;;;;;;8.55;100.00;101256.88;12222965;19;20357;-82
2022/11/26 17:26:54;;;;;;;20.02;8.48;;;;;;;8.58;100.00;101252.88;12203020;19;20007;-82
2022/11/26 17:31:10;;;;;;;20.75;9.23;;;;;;;8.57;100.00;101238.31;12221871;19;20018;-83
2022/11/26 17:35:24;;;;;;;21.35;9.27;;;;;;;8.59;100.00;101236.19;12199906;19;20040;-83
2022/11/26 17:39:51;;;;;;;18.88;9.52;;;;;;;8.61;100.00;101234.09;12223316;19;20471;-82
2022/11/26 17:53:47;;;;;;;25.08;8.85;;;;;;;8.59;100.00;101214.19;12224632;19;20019;-83
2022/11/26 17:57:55;;;;;;;18.30;10.18;;;;;;;8.59;100.00;101216.94;12219549;19;20042;-82
2022/11/26 18:02:28;;;;;;;21.85;10.82;;;;;;;8.61;100.00;101219.50;12195019;19;20012;-82
2022/11/26 18:06:51;;;;;;;24.27;10.98;;;;;;;8.60;100.00;101221.41;12219991;19;20018;-82
2022/11/26 18:10:52;;;;;;;28.63;12.70;;;;;;;8.58;100.00;101222.66;12213596;19;20472;-82
2022/11/26 18:14:56;;;;;;;25.48;12.38;;;;;;;8.53;100.00;101226.00;12227269;19;20007;-82
2022/11/26 18:18:57;;;;;;;27.35;11.02;;;;;;;8.51;100.00;101221.78;12213728;19;20015;-82
2022/11/26 18:23:00;;;;;;;19.73;11.27;;;;;;;8.49;100.00;101229.38;12192540;19;20074;-82
2022/11/26 18:27:01;;;;;;;21.20;10.27;;;;;;;8.45;100.00;101239.91;12220483;19;20010;-82
2022/11/26 18:31:03;;;;;;;23.13;9.82;;;;;;;8.39;100.00;101232.47;12219690;19;20436;-82
2022/11/26 18:35:05;;;;;;;16.92;8.25;;;;;;;8.40;100.00;101235.00;12200999;19;20074;-82
2022/11/26 18:39:07;;;;;;;14.77;7.97;;;;;;;8.38;100.00;101238.97;12243158;19;20037;-82
2022/11/26 18:43:09;;;;;;;19.02;9.30;;;;;;;8.38;100.00;101239.84;12251146;19;20036;-83
2022/11/26 18:47:11;;;;;;;20.23;9.55;;;;;;;8.41;100.00;101239.44;12207186;19;20023;-82
2022/11/26 18:51:14;;;;;;;22.13;10.60;;;;;;;8.45;100.00;101234.41;12225272;19;20006;-82
2022/11/26 18:55:16;;;;;;;19.13;8.07;;;;;;;8.49;100.00;101235.72;12222466;19;20021;-82
2022/11/26 18:59:18;;;;;;;15.00;6.83;;;;;;;8.51;100.00;101225.38;12204063;19;20014;-81
2022/11/26 19:03:19;;;;;;;16.58;8.32;;;;;;;8.52;100.00;101218.81;12222569;19;20136;-81
2022/11/26 19:07:21;;;;;;;21.67;7.80;;;;;;;8.49;100.00;101215.63;12223972;19;20062;-81
2022/11/26 19:11:24;;;;;;;18.00;7.60;;;;;;;8.47;100.00;101204.84;12203587;19;20018;-81
2022/11/26 19:15:25;;;;;;;17.27;6.75;;;;;;;8.47;100.00;101191.09;12223192;19;20014;-82
2022/11/26 19:19:27;;;;;;;18.33;6.90;;;;;;;8.40;100.00;101193.81;12217732;19;20014;-81
2022/11/26 19:23:29;;;;;;;14.65;7.53;;;;;;;8.39;100.00;101189.38;12197159;19;20053;-81
2022/11/26 19:27:31;;;;;;;13.30;7.10;;;;;;;8.43;100.00;101195.31;12218487;19;20011;-81